sensor_id;sensor_type;location;lat;lon;timestamp;P1;durP1;ratioP1;P2;durP2;ratioP2
43554;SDS011;35085;40.398;-3.702;2022-08-19T00:01:11;0.67;;;0.30;;
43554;SDS011;35085;40.398;-3.702;2022-08-19T00:11:22;2.15;;;0.57;;
43554;SDS011;35085;40.398;-3.702;2022-08-19T00:21:37;0.70;;;0.20;;
43554;SDS011;35085;40.398;-3.702;2022-08-19T00:31:50;1.45;;;0.45;;
43554;SDS011;35085;40.398;-3.702;2022-08-19T00:41:57;0.47;;;0.20;;
43554;SDS011;35085;40.398;-3.702;2022-08-19T00:52:08;1.10;;;0.30;;
43554;SDS011;35085;40.398;-3.702;2022-08-19T01:02:15;1.15;;;0.30;;
43554;SDS011;35085;40.398;-3.702;2022-08-19T01:12:24;0.60;;;0.30;;
43554;SDS011;35085;40.398;-3.702;2022-08-19T01:22:40;0.80;;;0.30;;
43554;SDS011;35085;40.398;-3.702;2022-08-19T01:32:56;0.40;;;0.20;;
43554;SDS011;35085;40.398;-3.702;2022-08-19T01:43:18;4.18;;;0.30;;
43554;SDS011;35085;40.398;-3.702;2022-08-19T01:53:48;0.73;;;0.40;;
43554;SDS011;35085;40.398;-3.702;2022-08-19T02:04:10;2.17;;;0.22;;
43554;SDS011;35085;40.398;-3.702;2022-08-19T02:14:38;1.35;;;0.30;;
43554;SDS011;35085;40.398;-3.702;2022-08-19T02:25:09;0.73;;;0.30;;
43554;SDS011;35085;40.398;-3.702;2022-08-19T02:35:34;0.77;;;0.40;;
43554;SDS011;35085;40.398;-3.702;2022-08-19T02:45:55;2.53;;;0.65;;
43554;SDS011;35085;40.398;-3.702;2022-08-19T02:56:14;1.40;;;0.20;;
43554;SDS011;35085;40.398;-3.702;2022-08-19T03:06:43;6.57;;;0.30;;
43554;SDS011;35085;40.398;-3.702;2022-08-19T03:27:39;1.15;;;0.30;;
43554;SDS011;35085;40.398;-3.702;2022-08-19T03:38:03;0.77;;;0.30;;
43554;SDS011;35085;40.398;-3.702;2022-08-19T03:48:20;1.75;;;0.30;;
43554;SDS011;35085;40.398;-3.702;2022-08-19T03:58:33;1.27;;;0.20;;
43554;SDS011;35085;40.398;-3.702;2022-08-19T04:08:45;0.40;;;0.20;;
43554;SDS011;35085;40.398;-3.702;2022-08-19T04:18:59;0.80;;;0.40;;
43554;SDS011;35085;40.398;-3.702;2022-08-19T04:29:10;0.57;;;0.30;;
43554;SDS011;35085;40.398;-3.702;2022-08-19T04:39:24;0.80;;;0.38;;
43554;SDS011;35085;40.398;-3.702;2022-08-19T04:49:52;1.10;;;0.20;;
43554;SDS011;35085;40.398;-3.702;2022-08-19T05:00:01;0.85;;;0.43;;
43554;SDS011;35085;40.398;-3.702;2022-08-19T05:10:09;3.42;;;0.30;;
43554;SDS011;35085;40.398;-3.702;2022-08-19T05:20:19;2.92;;;0.30;;
43554;SDS011;35085;40.398;-3.702;2022-08-19T05:30:39;2.08;;;0.38;;
43554;SDS011;35085;40.398;-3.702;2022-08-19T05:40:48;0.57;;;0.38;;
43554;SDS011;35085;40.398;-3.702;2022-08-19T05:50:57;0.52;;;0.20;;
43554;SDS011;35085;40.398;-3.702;2022-08-19T06:01:08;1.75;;;0.63;;
43554;SDS011;35085;40.398;-3.702;2022-08-19T06:21:25;2.67;;;0.75;;
43554;SDS011;35085;40.398;-3.702;2022-08-19T06:31:33;0.73;;;0.28;;
43554;SDS011;35085;40.398;-3.702;2022-08-19T06:41:43;5.35;;;0.40;;
43554;SDS011;35085;40.398;-3.702;2022-08-19T06:51:51;1.50;;;0.50;;
43554;SDS011;35085;40.398;-3.702;2022-08-19T07:02:02;2.13;;;0.55;;
43554;SDS011;35085;40.398;-3.702;2022-08-19T07:12:08;1.40;;;0.30;;
43554;SDS011;35085;40.398;-3.702;2022-08-19T07:22:18;0.63;;;0.38;;
43554;SDS011;35085;40.398;-3.702;2022-08-19T07:32:25;1.25;;;0.20;;
43554;SDS011;35085;40.398;-3.702;2022-08-19T07:42:34;4.78;;;0.80;;
43554;SDS011;35085;40.398;-3.702;2022-08-19T07:52:42;1.65;;;0.30;;
43554;SDS011;35085;40.398;-3.702;2022-08-19T08:02:51;1.10;;;0.57;;
43554;SDS011;35085;40.398;-3.702;2022-08-19T08:13:00;4.28;;;3.65;;
43554;SDS011;35085;40.398;-3.702;2022-08-19T08:23:10;2.70;;;0.40;;
43554;SDS011;35085;40.398;-3.702;2022-08-19T08:33:27;1.53;;;1.27;;
43554;SDS011;35085;40.398;-3.702;2022-08-19T08:43:37;0.82;;;0.35;;
43554;SDS011;35085;40.398;-3.702;2022-08-19T08:53:42;4.25;;;3.85;;
43554;SDS011;35085;40.398;-3.702;2022-08-19T09:03:53;0.60;;;0.30;;
43554;SDS011;35085;40.398;-3.702;2022-08-19T09:24:14;1.45;;;0.60;;
43554;SDS011;35085;40.398;-3.702;2022-08-19T09:34:22;1.80;;;0.55;;
43554;SDS011;35085;40.398;-3.702;2022-08-19T09:44:31;2.83;;;0.43;;
43554;SDS011;35085;40.398;-3.702;2022-08-19T09:54:38;3.57;;;1.37;;
43554;SDS011;35085;40.398;-3.702;2022-08-19T10:04:47;1.67;;;0.30;;
43554;SDS011;35085;40.398;-3.702;2022-08-19T10:15:08;1.48;;;0.57;;
43554;SDS011;35085;40.398;-3.702;2022-08-19T10:25:17;11.95;;;4.57;;
43554;SDS011;35085;40.398;-3.702;2022-08-19T10:35:26;0.70;;;0.30;;
43554;SDS011;35085;40.398;-3.702;2022-08-19T10:45:34;1.33;;;0.57;;
43554;SDS011;35085;40.398;-3.702;2022-08-19T10:55:44;3.53;;;0.30;;
43554;SDS011;35085;40.398;-3.702;2022-08-19T11:06:05;3.78;;;1.50;;
43554;SDS011;35085;40.398;-3.702;2022-08-19T11:16:14;2.17;;;0.60;;
43554;SDS011;35085;40.398;-3.702;2022-08-19T11:26:23;1.23;;;0.50;;
43554;SDS011;35085;40.398;-3.702;2022-08-19T11:36:30;2.30;;;0.70;;
43554;SDS011;35085;40.398;-3.702;2022-08-19T11:46:43;4.30;;;1.08;;
43554;SDS011;35085;40.398;-3.702;2022-08-19T11:56:48;1.05;;;0.60;;
43554;SDS011;35085;40.398;-3.702;2022-08-19T12:06:57;0.50;;;0.10;;
43554;SDS011;35085;40.398;-3.702;2022-08-19T12:17:06;0.88;;;0.30;;
43554;SDS011;35085;40.398;-3.702;2022-08-19T12:27:16;0.90;;;0.40;;
43554;SDS011;35085;40.398;-3.702;2022-08-19T12:37:25;1.08;;;0.47;;
43554;SDS011;35085;40.398;-3.702;2022-08-19T12:47:34;1.13;;;0.40;;
43554;SDS011;35085;40.398;-3.702;2022-08-19T12:57:43;2.58;;;1.52;;
43554;SDS011;35085;40.398;-3.702;2022-08-19T13:07:53;2.15;;;0.60;;
43554;SDS011;35085;40.398;-3.702;2022-08-19T13:17:59;0.57;;;0.30;;
43554;SDS011;35085;40.398;-3.702;2022-08-19T13:28:09;2.53;;;0.90;;
43554;SDS011;35085;40.398;-3.702;2022-08-19T13:38:19;9.55;;;3.78;;
43554;SDS011;35085;40.398;-3.702;2022-08-19T13:48:28;1.45;;;0.57;;
43554;SDS011;35085;40.398;-3.702;2022-08-19T13:58:35;0.60;;;0.40;;
43554;SDS011;35085;40.398;-3.702;2022-08-19T14:08:44;4.50;;;0.85;;
43554;SDS011;35085;40.398;-3.702;2022-08-19T14:18:53;1.60;;;0.55;;
43554;SDS011;35085;40.398;-3.702;2022-08-19T14:29:02;4.45;;;2.17;;
43554;SDS011;35085;40.398;-3.702;2022-08-19T14:39:11;2.88;;;0.60;;
43554;SDS011;35085;40.398;-3.702;2022-08-19T14:49:20;2.15;;;0.75;;
43554;SDS011;35085;40.398;-3.702;2022-08-19T14:59:26;2.65;;;0.40;;
43554;SDS011;35085;40.398;-3.702;2022-08-19T15:09:35;3.15;;;0.82;;
43554;SDS011;35085;40.398;-3.702;2022-08-19T15:19:44;1.42;;;0.65;;
43554;SDS011;35085;40.398;-3.702;2022-08-19T15:29:53;3.97;;;1.85;;
43554;SDS011;35085;40.398;-3.702;2022-08-19T15:40:02;1.67;;;0.50;;
43554;SDS011;35085;40.398;-3.702;2022-08-19T15:50:09;0.52;;;0.40;;
43554;SDS011;35085;40.398;-3.702;2022-08-19T16:00:12;4.25;;;1.00;;
43554;SDS011;35085;40.398;-3.702;2022-08-19T16:10:39;2.90;;;0.67;;
43554;SDS011;35085;40.398;-3.702;2022-08-19T16:20:47;4.25;;;0.90;;
43554;SDS011;35085;40.398;-3.702;2022-08-19T16:30:49;5.93;;;0.90;;
43554;SDS011;35085;40.398;-3.702;2022-08-19T16:40:58;2.55;;;1.23;;
43554;SDS011;35085;40.398;-3.702;2022-08-19T16:51:09;2.00;;;0.82;;
43554;SDS011;35085;40.398;-3.702;2022-08-19T17:01:15;1.90;;;1.17;;
43554;SDS011;35085;40.398;-3.702;2022-08-19T17:11:18;2.08;;;1.02;;
43554;SDS011;35085;40.398;-3.702;2022-08-19T17:21:26;1.83;;;0.60;;
43554;SDS011;35085;40.398;-3.702;2022-08-19T17:31:36;1.10;;;0.40;;
43554;SDS011;35085;40.398;-3.702;2022-08-19T17:41:44;2.10;;;0.50;;
43554;SDS011;35085;40.398;-3.702;2022-08-19T17:51:53;3.33;;;0.80;;
43554;SDS011;35085;40.398;-3.702;2022-08-19T18:02:05;2.83;;;1.30;;
43554;SDS011;35085;40.398;-3.702;2022-08-19T18:12:12;1.90;;;0.83;;
43554;SDS011;35085;40.398;-3.702;2022-08-19T18:22:27;1.67;;;0.82;;
43554;SDS011;35085;40.398;-3.702;2022-08-19T18:32:37;1.95;;;0.90;;
43554;SDS011;35085;40.398;-3.702;2022-08-19T18:42:44;13.55;;;9.25;;
43554;SDS011;35085;40.398;-3.702;2022-08-19T18:53:05;7.43;;;4.80;;
43554;SDS011;35085;40.398;-3.702;2022-08-19T19:03:13;6.95;;;4.03;;
43554;SDS011;35085;40.398;-3.702;2022-08-19T19:13:22;8.95;;;4.68;;
43554;SDS011;35085;40.398;-3.702;2022-08-19T19:23:31;7.03;;;4.13;;
43554;SDS011;35085;40.398;-3.702;2022-08-19T19:33:41;11.15;;;6.50;;
43554;SDS011;35085;40.398;-3.702;2022-08-19T19:43:51;7.95;;;3.20;;
43554;SDS011;35085;40.398;-3.702;2022-08-19T19:54:00;9.48;;;7.20;;
43554;SDS011;35085;40.398;-3.702;2022-08-19T20:04:10;12.70;;;4.15;;
43554;SDS011;35085;40.398;-3.702;2022-08-19T20:14:23;13.57;;;4.60;;
43554;SDS011;35085;40.398;-3.702;2022-08-19T20:24:26;13.60;;;4.95;;
43554;SDS011;35085;40.398;-3.702;2022-08-19T20:34:37;10.05;;;4.65;;
43554;SDS011;35085;40.398;-3.702;2022-08-19T20:44:43;12.10;;;6.32;;
43554;SDS011;35085;40.398;-3.702;2022-08-19T20:54:52;20.75;;;7.22;;
43554;SDS011;35085;40.398;-3.702;2022-08-19T21:05:02;16.20;;;6.20;;
43554;SDS011;35085;40.398;-3.702;2022-08-19T21:15:11;16.02;;;6.28;;
43554;SDS011;35085;40.398;-3.702;2022-08-19T21:25:20;21.13;;;6.32;;
43554;SDS011;35085;40.398;-3.702;2022-08-19T21:35:29;9.00;;;4.03;;
43554;SDS011;35085;40.398;-3.702;2022-08-19T21:45:39;7.75;;;2.70;;
43554;SDS011;35085;40.398;-3.702;2022-08-19T21:55:47;6.32;;;1.85;;
43554;SDS011;35085;40.398;-3.702;2022-08-19T22:05:56;5.68;;;2.00;;
43554;SDS011;35085;40.398;-3.702;2022-08-19T22:16:06;4.13;;;1.50;;
43554;SDS011;35085;40.398;-3.702;2022-08-19T22:26:17;3.78;;;1.83;;
43554;SDS011;35085;40.398;-3.702;2022-08-19T22:36:25;4.57;;;1.30;;
43554;SDS011;35085;40.398;-3.702;2022-08-19T22:56:44;1.95;;;1.00;;
43554;SDS011;35085;40.398;-3.702;2022-08-19T23:06:53;2.65;;;1.33;;
43554;SDS011;35085;40.398;-3.702;2022-08-19T23:17:03;2.90;;;1.60;;
43554;SDS011;35085;40.398;-3.702;2022-08-19T23:27:11;3.83;;;1.27;;
43554;SDS011;35085;40.398;-3.702;2022-08-19T23:37:32;4.45;;;1.67;;
43554;SDS011;35085;40.398;-3.702;2022-08-19T23:47:38;2.63;;;1.08;;
43554;SDS011;35085;40.398;-3.702;2022-08-19T23:57:48;3.25;;;1.10;;
